Terminal Aerodrome Forecast
Issued by NWS

Home | Current Version | Previous Version | Graphics & Text | Print | Product List | Glossary On
Versions: 1 2 3 4 5 6 7 8 9 10 11 12 13 14 15 16 17 18
000
FTUS43 KGRB 260530
TAFCWA
TAF
KCWA 260530Z 2606/2706 VRB02KT P6SM SKC
      TEMPO 2608/2612 3SM BR
     FM261500 25007KT P6SM FEW030
     FM270100 VRB03KT P6SM FEW040 BKN100
      AMD LTD TO CLD VIS AND WIND TIL 261100=

USA.gov is the U.S. government's official web portal to all federal, state and local government web resources and services.